sensor_id;sensor_type;location;lat;lon;timestamp;P1;P2;P0
62981;PMS5003;49075;53.988;27.678;2023-05-15T00:01:46;30.8;29.4;20.6
62981;PMS5003;49075;53.988;27.678;2023-05-15T00:06:36;36.4;32.8;22.2
62981;PMS5003;49075;53.988;27.678;2023-05-15T00:11:36;33.8;31.4;21.2
62981;PMS5003;49075;53.988;27.678;2023-05-15T00:16:40;38.3;33.5;23
62981;PMS5003;49075;53.988;27.678;2023-05-15T00:21:26;36.2;32.8;22
62981;PMS5003;49075;53.988;27.678;2023-05-15T00:26:36;40.2;35.2;23.6
62981;PMS5003;49075;53.988;27.678;2023-05-15T00:31:26;38.2;34.2;23.4
62981;PMS5003;49075;53.988;27.678;2023-05-15T00:36:34;38.6;34.4;23
62981;PMS5003;49075;53.988;27.678;2023-05-15T00:41:44;37.6;33;22.4
62981;PMS5003;49075;53.988;27.678;2023-05-15T00:46:51;35.4;31.8;21.6
62981;PMS5003;49075;53.988;27.678;2023-05-15T00:51:52;36.4;32.6;21.6
62981;PMS5003;49075;53.988;27.678;2023-05-15T00:56:36;35.8;33.2;22.4
62981;PMS5003;49075;53.988;27.678;2023-05-15T01:01:36;37.2;33.4;22.6
62981;PMS5003;49075;53.988;27.678;2023-05-15T01:06:34;37.4;33.6;22.8
62981;PMS5003;49075;53.988;27.678;2023-05-15T01:11:41;38;34.2;22.6
62981;PMS5003;49075;53.988;27.678;2023-05-15T01:16:36;35.6;32.2;21.6
62981;PMS5003;49075;53.988;27.678;2023-05-15T01:21:56;31;29.5;20.5
62981;PMS5003;49075;53.988;27.678;2023-05-15T01:26:59;71.6;60.4;38.4
62981;PMS5003;49075;53.988;27.678;2023-05-15T01:31:27;45.4;38.6;25.4
62981;PMS5003;49075;53.988;27.678;2023-05-15T01:36:38;33.4;31.2;20.4
62981;PMS5003;49075;53.988;27.678;2023-05-15T01:41:51;36;32.8;22
62981;PMS5003;49075;53.988;27.678;2023-05-15T01:46:26;46.2;39;24.8
62981;PMS5003;49075;53.988;27.678;2023-05-15T01:51:46;55;46;29.4
62981;PMS5003;49075;53.988;27.678;2023-05-15T01:56:26;52.4;43.4;28.2
62981;PMS5003;49075;53.988;27.678;2023-05-15T02:01:40;50.6;42.4;27.8
62981;PMS5003;49075;53.988;27.678;2023-05-15T02:06:26;45.2;37.8;25
62981;PMS5003;49075;53.988;27.678;2023-05-15T02:11:35;46.8;38.4;25
62981;PMS5003;49075;53.988;27.678;2023-05-15T02:16:26;42.2;36.6;24.8
62981;PMS5003;49075;53.988;27.678;2023-05-15T02:21:36;45;36.5;24
62981;PMS5003;49075;53.988;27.678;2023-05-15T02:26:29;35.2;32.8;22
62981;PMS5003;49075;53.988;27.678;2023-05-15T02:31:46;42;35.8;23.6
62981;PMS5003;49075;53.988;27.678;2023-05-15T02:36:28;39;34.2;23
62981;PMS5003;49075;53.988;27.678;2023-05-15T02:41:26;36.6;32.4;21.8
62981;PMS5003;49075;53.988;27.678;2023-05-15T02:47:00;41.2;35.6;24.4
62981;PMS5003;49075;53.988;27.678;2023-05-15T02:51:50;40.2;35.2;23.4
62981;PMS5003;49075;53.988;27.678;2023-05-15T02:56:36;38.2;33.4;22.2
62981;PMS5003;49075;53.988;27.678;2023-05-15T03:01:26;37.6;33.4;22.8
62981;PMS5003;49075;53.988;27.678;2023-05-15T03:07:00;40.2;35.2;22.8
62981;PMS5003;49075;53.988;27.678;2023-05-15T03:11:44;38.8;34.2;23
62981;PMS5003;49075;53.988;27.678;2023-05-15T03:16:27;39;34.6;23
62981;PMS5003;49075;53.988;27.678;2023-05-15T03:21:26;39.3;34.5;23.8
62981;PMS5003;49075;53.988;27.678;2023-05-15T03:26:26;42.6;36.4;24.2
62981;PMS5003;49075;53.988;27.678;2023-05-15T03:31:26;39.2;34.8;23.6
62981;PMS5003;49075;53.988;27.678;2023-05-15T03:36:26;37.6;33.2;22.8
62981;PMS5003;49075;53.988;27.678;2023-05-15T03:41:50;36.8;33.8;22.6
62981;PMS5003;49075;53.988;27.678;2023-05-15T03:46:36;40.8;35.4;23.8
62981;PMS5003;49075;53.988;27.678;2023-05-15T03:51:52;41.2;35.8;23.6
62981;PMS5003;49075;53.988;27.678;2023-05-15T03:56:26;40.2;35.4;23.6
62981;PMS5003;49075;53.988;27.678;2023-05-15T04:01:26;40;35.6;24.6
62981;PMS5003;49075;53.988;27.678;2023-05-15T04:06:36;40.2;35.6;24.6
62981;PMS5003;49075;53.988;27.678;2023-05-15T04:11:26;43;36.6;24.2
62981;PMS5003;49075;53.988;27.678;2023-05-15T04:16:48;41;36;23.8
62981;PMS5003;49075;53.988;27.678;2023-05-15T04:21:48;37;33;22.3
62981;PMS5003;49075;53.988;27.678;2023-05-15T04:26:26;43.2;36.6;24.2
62981;PMS5003;49075;53.988;27.678;2023-05-15T04:31:50;39.2;34.6;22.8
62981;PMS5003;49075;53.988;27.678;2023-05-15T04:36:38;35;32.2;22
62981;PMS5003;49075;53.988;27.678;2023-05-15T04:41:50;37.2;32.6;22.2
62981;PMS5003;49075;53.988;27.678;2023-05-15T04:46:50;39.4;34.8;23.8
62981;PMS5003;49075;53.988;27.678;2023-05-15T04:51:26;39.4;34.4;22.2
62981;PMS5003;49075;53.988;27.678;2023-05-15T04:56:26;39.8;35;23
62981;PMS5003;49075;53.988;27.678;2023-05-15T05:01:50;37.8;33.8;22.8
62981;PMS5003;49075;53.988;27.678;2023-05-15T05:06:26;40.8;35.4;23.8
62981;PMS5003;49075;53.988;27.678;2023-05-15T05:11:26;36.2;32.6;22.8
62981;PMS5003;49075;53.988;27.678;2023-05-15T05:16:26;37.8;33.2;22.4
62981;PMS5003;49075;53.988;27.678;2023-05-15T05:21:35;40;35;22.5
62981;PMS5003;49075;53.988;27.678;2023-05-15T05:26:51;41.2;35.6;24
62981;PMS5003;49075;53.988;27.678;2023-05-15T05:31:46;41.8;35.6;23.8
62981;PMS5003;49075;53.988;27.678;2023-05-15T05:36:26;44.8;37.6;25.2
62981;PMS5003;49075;53.988;27.678;2023-05-15T05:41:37;42.8;36.2;24
62981;PMS5003;49075;53.988;27.678;2023-05-15T05:46:53;37.4;33.2;22.6
62981;PMS5003;49075;53.988;27.678;2023-05-15T05:51:46;38.6;34.6;23.6
62981;PMS5003;49075;53.988;27.678;2023-05-15T05:56:39;52.4;44.6;29.2
62981;PMS5003;49075;53.988;27.678;2023-05-15T06:01:27;39.2;34.2;23.6
62981;PMS5003;49075;53.988;27.678;2023-05-15T06:06:34;42.6;36;24
62981;PMS5003;49075;53.988;27.678;2023-05-15T06:11:39;39;34.8;23.2
62981;PMS5003;49075;53.988;27.678;2023-05-15T06:16:27;39.2;34.8;23.6
62981;PMS5003;49075;53.988;27.678;2023-05-15T06:21:37;35.2;31.8;22
62981;PMS5003;49075;53.988;27.678;2023-05-15T06:26:53;35.3;31.3;20.8
62981;PMS5003;49075;53.988;27.678;2023-05-15T06:31:27;35;31.6;21.6
62981;PMS5003;49075;53.988;27.678;2023-05-15T06:36:27;36;32.4;21.8
62981;PMS5003;49075;53.988;27.678;2023-05-15T06:41:53;36.2;33.2;22.4
62981;PMS5003;49075;53.988;27.678;2023-05-15T06:46:47;40.2;35;23.4
62981;PMS5003;49075;53.988;27.678;2023-05-15T06:51:27;32.8;30.4;21.2
62981;PMS5003;49075;53.988;27.678;2023-05-15T06:56:27;39.2;34;23.2
62981;PMS5003;49075;53.988;27.678;2023-05-15T07:01:27;37.2;33.6;22.6
62981;PMS5003;49075;53.988;27.678;2023-05-15T07:06:27;47;41.8;27.8
62981;PMS5003;49075;53.988;27.678;2023-05-15T07:11:39;34.6;31.8;21.8
62981;PMS5003;49075;53.988;27.678;2023-05-15T07:16:35;30.2;28.4;19.8
62981;PMS5003;49075;53.988;27.678;2023-05-15T07:21:49;42.8;36.6;24.2
62981;PMS5003;49075;53.988;27.678;2023-05-15T07:26:27;57.5;49.5;32.8
62981;PMS5003;49075;53.988;27.678;2023-05-15T07:31:35;32.6;30.8;20.8
62981;PMS5003;49075;53.988;27.678;2023-05-15T07:36:53;33.8;31.2;21.8
62981;PMS5003;49075;53.988;27.678;2023-05-15T07:41:59;33.8;30.4;21.2
62981;PMS5003;49075;53.988;27.678;2023-05-15T07:46:47;36.4;33;23
62981;PMS5003;49075;53.988;27.678;2023-05-15T07:51:27;30;28;19.6
62981;PMS5003;49075;53.988;27.678;2023-05-15T07:56:27;30.4;29.6;20.8
62981;PMS5003;49075;53.988;27.678;2023-05-15T08:01:45;29.4;27.8;20.4
62981;PMS5003;49075;53.988;27.678;2023-05-15T08:06:47;32.6;30;20.6
62981;PMS5003;49075;53.988;27.678;2023-05-15T08:11:27;29.8;28.6;20.4
62981;PMS5003;49075;53.988;27.678;2023-05-15T08:16:37;28.2;26.6;19.8
62981;PMS5003;49075;53.988;27.678;2023-05-15T08:21:47;26;25.8;18.8
62981;PMS5003;49075;53.988;27.678;2023-05-15T08:26:35;30;29.5;20.8
62981;PMS5003;49075;53.988;27.678;2023-05-15T08:31:51;29.6;28.6;19
62981;PMS5003;49075;53.988;27.678;2023-05-15T08:36:39;22.4;21.4;14.6
62981;PMS5003;49075;53.988;27.678;2023-05-15T08:42:02;23.6;23;17.2
62981;PMS5003;49075;53.988;27.678;2023-05-15T08:46:45;25;24.8;17.8
62981;PMS5003;49075;53.988;27.678;2023-05-15T08:51:27;25.8;24.6;17.2
62981;PMS5003;49075;53.988;27.678;2023-05-15T08:56:27;24.2;23.4;17.6
62981;PMS5003;49075;53.988;27.678;2023-05-15T09:01:45;23.8;23;17.3
62981;PMS5003;49075;53.988;27.678;2023-05-15T09:06:27;25.4;24.6;17.8
62981;PMS5003;49075;53.988;27.678;2023-05-15T09:11:27;27.4;25.8;18.2
62981;PMS5003;49075;53.988;27.678;2023-05-15T09:16:27;27.8;27.2;19
62981;PMS5003;49075;53.988;27.678;2023-05-15T09:21:49;28;26;18.6
62981;PMS5003;49075;53.988;27.678;2023-05-15T09:26:35;29.4;28.6;19.8
62981;PMS5003;49075;53.988;27.678;2023-05-15T09:31:27;27.8;26.8;18.8
62981;PMS5003;49075;53.988;27.678;2023-05-15T09:36:41;29.4;28.2;19.4
62981;PMS5003;49075;53.988;27.678;2023-05-15T09:42:07;27;24.6;18
62981;PMS5003;49075;53.988;27.678;2023-05-15T09:46:41;24.4;24.2;17
62981;PMS5003;49075;53.988;27.678;2023-05-15T09:51:39;30.2;29.2;19.8
62981;PMS5003;49075;53.988;27.678;2023-05-15T09:56:39;27.4;26.4;19
62981;PMS5003;49075;53.988;27.678;2023-05-15T10:01:28;23.8;22.3;17
62981;PMS5003;49075;53.988;27.678;2023-05-15T10:06:31;25.6;24.6;18.4
62981;PMS5003;49075;53.988;27.678;2023-05-15T10:11:39;31;29;20.2
62981;PMS5003;49075;53.988;27.678;2023-05-15T10:16:41;29.8;28.8;19.8
62981;PMS5003;49075;53.988;27.678;2023-05-15T10:21:47;29.4;27.8;19.6
62981;PMS5003;49075;53.988;27.678;2023-05-15T10:26:28;29.8;28.2;18.8
62981;PMS5003;49075;53.988;27.678;2023-05-15T10:31:33;35.6;31.4;21.6
62981;PMS5003;49075;53.988;27.678;2023-05-15T10:36:43;31.6;29;20.2
62981;PMS5003;49075;53.988;27.678;2023-05-15T10:41:27;31.6;29.6;20.4
62981;PMS5003;49075;53.988;27.678;2023-05-15T10:46:53;33.6;30.8;20.6
62981;PMS5003;49075;53.988;27.678;2023-05-15T10:51:37;34.2;29.8;20
62981;PMS5003;49075;53.988;27.678;2023-05-15T10:56:25;32;29.8;21.4
62981;PMS5003;49075;53.988;27.678;2023-05-15T11:01:39;32.3;30.5;20.5
62981;PMS5003;49075;53.988;27.678;2023-05-15T11:06:33;30.4;28.8;19.2
62981;PMS5003;49075;53.988;27.678;2023-05-15T11:11:54;29.4;28.6;19.8
62981;PMS5003;49075;53.988;27.678;2023-05-15T11:17:07;26.2;25.2;17
62981;PMS5003;49075;53.988;27.678;2023-05-15T11:21:27;30;28.4;19.6
62981;PMS5003;49075;53.988;27.678;2023-05-15T11:26:31;30.2;29.2;20.8
62981;PMS5003;49075;53.988;27.678;2023-05-15T11:31:28;27;25.4;19
62981;PMS5003;49075;53.988;27.678;2023-05-15T11:36:49;27;25.6;18
62981;PMS5003;49075;53.988;27.678;2023-05-15T11:41:35;26;25.2;18.6
62981;PMS5003;49075;53.988;27.678;2023-05-15T11:46:25;30.8;28.6;19.6
62981;PMS5003;49075;53.988;27.678;2023-05-15T11:51:25;29.6;28.4;19.4
62981;PMS5003;49075;53.988;27.678;2023-05-15T11:56:40;27.2;26;18
62981;PMS5003;49075;53.988;27.678;2023-05-15T12:01:25;28.8;28.3;19.8
62981;PMS5003;49075;53.988;27.678;2023-05-15T12:06:35;28.2;27.4;19.6
62981;PMS5003;49075;53.988;27.678;2023-05-15T12:11:33;30.2;28.2;20.6
62981;PMS5003;49075;53.988;27.678;2023-05-15T12:16:39;28.6;27.8;19.6
62981;PMS5003;49075;53.988;27.678;2023-05-15T12:21:45;30;29;19.6
62981;PMS5003;49075;53.988;27.678;2023-05-15T12:26:25;30;28.8;20.8
62981;PMS5003;49075;53.988;27.678;2023-05-15T12:31:25;27.2;26.2;18.6
62981;PMS5003;49075;53.988;27.678;2023-05-15T12:36:26;29;27.4;19.8
62981;PMS5003;49075;53.988;27.678;2023-05-15T12:41:25;31.4;29.8;20.6
62981;PMS5003;49075;53.988;27.678;2023-05-15T12:46:35;30.4;28.4;21
62981;PMS5003;49075;53.988;27.678;2023-05-15T12:51:25;33.2;30.4;20.8
62981;PMS5003;49075;53.988;27.678;2023-05-15T12:56:25;29.8;28.4;19
62981;PMS5003;49075;53.988;27.678;2023-05-15T13:01:45;35;31.8;22.4
62981;PMS5003;49075;53.988;27.678;2023-05-15T13:06:39;36.3;32.3;22.5
62981;PMS5003;49075;53.988;27.678;2023-05-15T13:11:49;31;29.4;20.8
62981;PMS5003;49075;53.988;27.678;2023-05-15T13:16:59;30.6;29;20
62981;PMS5003;49075;53.988;27.678;2023-05-15T13:21:53;31;29.4;20.4
62981;PMS5003;49075;53.988;27.678;2023-05-15T13:26:35;31.8;29.8;20.2
62981;PMS5003;49075;53.988;27.678;2023-05-15T13:31:35;28;27.2;19.6
62981;PMS5003;49075;53.988;27.678;2023-05-15T13:36:47;32.8;31.2;21
62981;PMS5003;49075;53.988;27.678;2023-05-15T13:41:25;35.2;32.4;22.6
62981;PMS5003;49075;53.988;27.678;2023-05-15T13:46:39;32.6;31;21.2
62981;PMS5003;49075;53.988;27.678;2023-05-15T13:51:51;29.2;28.4;20.4
62981;PMS5003;49075;53.988;27.678;2023-05-15T13:56:35;34.6;31.6;21.8
62981;PMS5003;49075;53.988;27.678;2023-05-15T14:01:25;33.4;30.6;20.8
62981;PMS5003;49075;53.988;27.678;2023-05-15T14:06:37;31.8;29.8;20.3
62981;PMS5003;49075;53.988;27.678;2023-05-15T14:11:39;39;34;22.8
62981;PMS5003;49075;53.988;27.678;2023-05-15T14:16:39;27.6;26.2;19.4
62981;PMS5003;49075;53.988;27.678;2023-05-15T14:21:25;31.2;30;21
62981;PMS5003;49075;53.988;27.678;2023-05-15T14:26:37;29.8;28.8;20.2
62981;PMS5003;49075;53.988;27.678;2023-05-15T14:31:25;31.6;30;21.2
62981;PMS5003;49075;53.988;27.678;2023-05-15T14:36:35;30.6;29.2;21
62981;PMS5003;49075;53.988;27.678;2023-05-15T14:41:35;29.2;27;19
62981;PMS5003;49075;53.988;27.678;2023-05-15T14:46:40;33;30;20.8
62981;PMS5003;49075;53.988;27.678;2023-05-15T14:51:33;27.8;26.8;19.2
62981;PMS5003;49075;53.988;27.678;2023-05-15T14:56:35;31.6;29;19.6
62981;PMS5003;49075;53.988;27.678;2023-05-15T15:01:35;26.2;25.8;17.8
62981;PMS5003;49075;53.988;27.678;2023-05-15T15:06:45;32.3;30.3;21
62981;PMS5003;49075;53.988;27.678;2023-05-15T15:11:35;31.8;29.2;20
62981;PMS5003;49075;53.988;27.678;2023-05-15T15:16:37;34.4;30.4;20.8
62981;PMS5003;49075;53.988;27.678;2023-05-15T15:21:39;33.2;30.6;21
62981;PMS5003;49075;53.988;27.678;2023-05-15T15:26:47;35;32;21.6
62981;PMS5003;49075;53.988;27.678;2023-05-15T15:31:25;33;31.2;21.8
62981;PMS5003;49075;53.988;27.678;2023-05-15T15:36:33;34.6;31.6;21.6
62981;PMS5003;49075;53.988;27.678;2023-05-15T15:41:25;30.6;29;20.6
62981;PMS5003;49075;53.988;27.678;2023-05-15T15:46:37;33.8;30.8;21.6
62981;PMS5003;49075;53.988;27.678;2023-05-15T15:52:01;38.4;33.6;22.6
62981;PMS5003;49075;53.988;27.678;2023-05-15T15:56:39;36;32.6;22.4
62981;PMS5003;49075;53.988;27.678;2023-05-15T16:01:25;37.6;32;22.2
62981;PMS5003;49075;53.988;27.678;2023-05-15T16:06:25;36.5;32.8;22
62981;PMS5003;49075;53.988;27.678;2023-05-15T16:11:25;32.8;30.6;21.2
62981;PMS5003;49075;53.988;27.678;2023-05-15T16:16:25;40;35.4;24.2
62981;PMS5003;49075;53.988;27.678;2023-05-15T16:21:25;38;33.2;22.8
62981;PMS5003;49075;53.988;27.678;2023-05-15T16:26:25;38;33.8;22.4
62981;PMS5003;49075;53.988;27.678;2023-05-15T16:31:43;34.8;32;21.6
62981;PMS5003;49075;53.988;27.678;2023-05-15T16:36:25;37.4;33.6;23
62981;PMS5003;49075;53.988;27.678;2023-05-15T16:42:01;36.2;32.8;22.2
62981;PMS5003;49075;53.988;27.678;2023-05-15T16:46:33;35;31.6;21.8
62981;PMS5003;49075;53.988;27.678;2023-05-15T16:51:35;36.2;32.6;22
62981;PMS5003;49075;53.988;27.678;2023-05-15T16:56:51;38.4;34;22
62981;PMS5003;49075;53.988;27.678;2023-05-15T17:01:33;42.8;36.8;24.2
62981;PMS5003;49075;53.988;27.678;2023-05-15T17:06:25;39.4;35;23.4
62981;PMS5003;49075;53.988;27.678;2023-05-15T17:11:37;37;33.8;22.5
62981;PMS5003;49075;53.988;27.678;2023-05-15T17:16:47;39.6;34.2;24.2
62981;PMS5003;49075;53.988;27.678;2023-05-15T17:21:39;35.4;32;22.2
62981;PMS5003;49075;53.988;27.678;2023-05-15T17:26:45;37.6;34;22.4
62981;PMS5003;49075;53.988;27.678;2023-05-15T17:31:25;34.6;32;21.8
62981;PMS5003;49075;53.988;27.678;2023-05-15T17:36:51;34.6;31.8;22
62981;PMS5003;49075;53.988;27.678;2023-05-15T17:41:43;37.2;33.2;22.6
62981;PMS5003;49075;53.988;27.678;2023-05-15T17:46:25;37.2;33.6;22
62981;PMS5003;49075;53.988;27.678;2023-05-15T17:51:49;34.6;31.6;21.8
62981;PMS5003;49075;53.988;27.678;2023-05-15T17:56:25;35.6;32.8;22
62981;PMS5003;49075;53.988;27.678;2023-05-15T18:01:41;36.4;32.4;22.4
62981;PMS5003;49075;53.988;27.678;2023-05-15T18:06:25;35.2;32.4;22.4
62981;PMS5003;49075;53.988;27.678;2023-05-15T18:11:31;40.5;35;23.8
62981;PMS5003;49075;53.988;27.678;2023-05-15T18:16:25;35.4;32.2;22.6
62981;PMS5003;49075;53.988;27.678;2023-05-15T18:21:39;32;29.8;20.4
62981;PMS5003;49075;53.988;27.678;2023-05-15T18:26:39;34.6;31.6;21.6
62981;PMS5003;49075;53.988;27.678;2023-05-15T18:31:39;36.4;32.6;22
62981;PMS5003;49075;53.988;27.678;2023-05-15T18:36:25;30.8;29.6;20.4
62981;PMS5003;49075;53.988;27.678;2023-05-15T18:41:25;34.8;32.4;22
62981;PMS5003;49075;53.988;27.678;2023-05-15T18:46:25;33.2;30.8;21.2
62981;PMS5003;49075;53.988;27.678;2023-05-15T18:51:25;34.6;31.8;21.8
62981;PMS5003;49075;53.988;27.678;2023-05-15T18:56:31;33;30;21
62981;PMS5003;49075;53.988;27.678;2023-05-15T19:01:39;36.6;33;22.4
62981;PMS5003;49075;53.988;27.678;2023-05-15T19:06:40;37.2;33.2;22.4
62981;PMS5003;49075;53.988;27.678;2023-05-15T19:11:45;41.3;35.8;24.5
62981;PMS5003;49075;53.988;27.678;2023-05-15T19:16:39;42.2;36.4;24
62981;PMS5003;49075;53.988;27.678;2023-05-15T19:21:37;35.6;32.4;22.4
62981;PMS5003;49075;53.988;27.678;2023-05-15T19:26:25;39.8;34.8;23.2
62981;PMS5003;49075;53.988;27.678;2023-05-15T19:32:03;38.6;34.2;23.2
62981;PMS5003;49075;53.988;27.678;2023-05-15T19:36:25;40.2;35;23.2
62981;PMS5003;49075;53.988;27.678;2023-05-15T19:41:25;39.6;34.6;24
62981;PMS5003;49075;53.988;27.678;2023-05-15T19:46:25;39.2;34.4;23.2
62981;PMS5003;49075;53.988;27.678;2023-05-15T19:51:25;39.6;34.6;24
62981;PMS5003;49075;53.988;27.678;2023-05-15T19:56:35;39.2;34.2;23.6
62981;PMS5003;49075;53.988;27.678;2023-05-15T20:01:37;35.6;32.4;21.6
62981;PMS5003;49075;53.988;27.678;2023-05-15T20:06:31;42;36.2;24.8
62981;PMS5003;49075;53.988;27.678;2023-05-15T20:11:37;40.8;35.5;24.3
62981;PMS5003;49075;53.988;27.678;2023-05-15T20:16:25;43.6;37.6;25.4
62981;PMS5003;49075;53.988;27.678;2023-05-15T20:21:25;41.6;36.2;24.8
62981;PMS5003;49075;53.988;27.678;2023-05-15T20:26:45;44.6;37;25.4
62981;PMS5003;49075;53.988;27.678;2023-05-15T20:31:45;39.6;34.8;24.6
62981;PMS5003;49075;53.988;27.678;2023-05-15T20:36:41;37.2;33.2;22.6
62981;PMS5003;49075;53.988;27.678;2023-05-15T20:41:25;41.4;35.8;23.8
62981;PMS5003;49075;53.988;27.678;2023-05-15T20:46:53;41.6;36.4;24.2
62981;PMS5003;49075;53.988;27.678;2023-05-15T20:51:49;44;37.6;24.8
62981;PMS5003;49075;53.988;27.678;2023-05-15T20:56:35;41.2;35;24.6
62981;PMS5003;49075;53.988;27.678;2023-05-15T21:02:03;41.8;36.4;24.2
62981;PMS5003;49075;53.988;27.678;2023-05-15T21:06:35;44.6;37.8;24.8
62981;PMS5003;49075;53.988;27.678;2023-05-15T21:11:39;42.8;37;24.8
62981;PMS5003;49075;53.988;27.678;2023-05-15T21:16:25;45.4;38.8;26.6
62981;PMS5003;49075;53.988;27.678;2023-05-15T21:21:25;47.4;39.8;27.2
62981;PMS5003;49075;53.988;27.678;2023-05-15T21:26:31;48;40;26.8
62981;PMS5003;49075;53.988;27.678;2023-05-15T21:31:25;48.8;41;27.6
62981;PMS5003;49075;53.988;27.678;2023-05-15T21:36:35;47.2;39.4;26.2
62981;PMS5003;49075;53.988;27.678;2023-05-15T21:41:31;48.6;40.8;27.2
62981;PMS5003;49075;53.988;27.678;2023-05-15T21:46:41;49.4;41.2;27.4
62981;PMS5003;49075;53.988;27.678;2023-05-15T21:52:07;51.2;42.6;28
62981;PMS5003;49075;53.988;27.678;2023-05-15T21:56:25;52.3;42.8;28.3
62981;PMS5003;49075;53.988;27.678;2023-05-15T22:01:59;51.8;43;28.6
62981;PMS5003;49075;53.988;27.678;2023-05-15T22:06:39;54.2;44.6;29.4
62981;PMS5003;49075;53.988;27.678;2023-05-15T22:11:37;52;42.8;28.2
62981;PMS5003;49075;53.988;27.678;2023-05-15T22:16:31;53.2;43.8;29.2
62981;PMS5003;49075;53.988;27.678;2023-05-15T22:21:25;50.8;42.4;29
62981;PMS5003;49075;53.988;27.678;2023-05-15T22:26:37;54.2;45;29.8
62981;PMS5003;49075;53.988;27.678;2023-05-15T22:31:25;49;41;27.6
62981;PMS5003;49075;53.988;27.678;2023-05-15T22:36:39;53;43.6;28.8
62981;PMS5003;49075;53.988;27.678;2023-05-15T22:41:25;52.2;43.2;29
62981;PMS5003;49075;53.988;27.678;2023-05-15T22:46:25;53;43.4;28.8
62981;PMS5003;49075;53.988;27.678;2023-05-15T22:51:39;50.8;42.6;28
62981;PMS5003;49075;53.988;27.678;2023-05-15T22:56:57;49;40.5;27.3
62981;PMS5003;49075;53.988;27.678;2023-05-15T23:01:25;50.4;42.2;27.8
62981;PMS5003;49075;53.988;27.678;2023-05-15T23:06:39;52.4;43.4;29
62981;PMS5003;49075;53.988;27.678;2023-05-15T23:11:25;52.2;43;28.4
62981;PMS5003;49075;53.988;27.678;2023-05-15T23:16:47;48.4;40.8;27
62981;PMS5003;49075;53.988;27.678;2023-05-15T23:21:47;49.8;41.8;27.8
62981;PMS5003;49075;53.988;27.678;2023-05-15T23:26:31;50;42;28.4
62981;PMS5003;49075;53.988;27.678;2023-05-15T23:31:35;53.6;44.2;29.2
62981;PMS5003;49075;53.988;27.678;2023-05-15T23:36:25;49.6;42.2;28.4
62981;PMS5003;49075;53.988;27.678;2023-05-15T23:41:41;50.6;42;28.4
62981;PMS5003;49075;53.988;27.678;2023-05-15T23:46:39;50.6;41.8;28.2
62981;PMS5003;49075;53.988;27.678;2023-05-15T23:51:55;47.4;39.8;26.8
62981;PMS5003;49075;53.988;27.678;2023-05-15T23:56:37;49.2;41.8;28.4
